createdAt,value
2023-02-11T00:00:19.998Z,7.00
2023-02-11T00:02:48.000Z,6.90
2023-02-11T00:05:15.227Z,7.00
2023-02-11T00:07:42.035Z,7.00
2023-02-11T00:10:09.277Z,6.90
2023-02-11T00:12:37.593Z,7.00
2023-02-11T00:15:06.274Z,7.00
2023-02-11T00:17:33.156Z,7.10
2023-02-11T00:19:59.848Z,7.00
2023-02-11T00:22:26.550Z,7.00
2023-02-11T00:24:53.305Z,7.00
2023-02-11T00:27:19.966Z,7.00
2023-02-11T00:29:46.602Z,7.00
2023-02-11T00:32:13.213Z,7.00
2023-02-11T00:34:39.866Z,7.00
2023-02-11T00:37:06.633Z,7.00
2023-02-11T00:39:33.392Z,7.00
2023-02-11T00:42:00.235Z,6.90
2023-02-11T00:44:26.936Z,6.90
2023-02-11T00:46:53.595Z,7.00
2023-02-11T00:49:20.335Z,6.90
2023-02-11T00:51:46.960Z,6.90
2023-02-11T00:54:13.609Z,6.90
2023-02-11T00:56:40.254Z,6.90
2023-02-11T00:59:06.891Z,6.90
2023-02-11T01:01:34.594Z,6.90
2023-02-11T01:04:01.323Z,6.90
2023-02-11T01:06:27.908Z,7.00
2023-02-11T01:08:54.551Z,6.90
2023-02-11T01:11:22.105Z,6.80
2023-02-11T01:13:49.722Z,6.90
2023-02-11T01:16:17.275Z,6.90
2023-02-11T01:18:44.328Z,6.90
2023-02-11T01:21:11.376Z,7.00
2023-02-11T01:23:38.014Z,7.00
2023-02-11T01:26:05.333Z,7.00
2023-02-11T01:28:32.241Z,7.70
2023-02-11T01:31:00.672Z,7.00
2023-02-11T01:33:27.359Z,7.00
2023-02-11T01:35:54.041Z,7.00
2023-02-11T01:38:23.659Z,6.90
2023-02-11T01:40:59.413Z,6.90
2023-02-11T01:43:27.653Z,7.00
2023-02-11T01:46:16.092Z,6.90
2023-02-11T01:48:47.402Z,7.10
2023-02-11T01:51:27.616Z,7.00
2023-02-11T01:54:14.111Z,7.10
2023-02-11T01:57:05.753Z,7.00
2023-02-11T01:59:48.632Z,7.00
2023-02-11T02:02:19.982Z,7.00
2023-02-11T02:04:57.315Z,7.10
2023-02-11T02:07:35.966Z,7.00
2023-02-11T02:10:11.282Z,6.90
2023-02-11T02:12:38.025Z,6.90
2023-02-11T02:15:26.998Z,6.90
2023-02-11T02:18:14.812Z,6.90
2023-02-11T02:21:13.886Z,6.90
2023-02-11T02:23:59.419Z,7.00
2023-02-11T02:26:46.728Z,6.90
2023-02-11T02:29:38.136Z,7.00
2023-02-11T02:32:23.325Z,7.00
2023-02-11T02:35:09.630Z,7.00
2023-02-11T02:37:51.692Z,7.00
2023-02-11T02:40:25.860Z,7.10
2023-02-11T02:42:54.010Z,7.10
2023-02-11T02:45:20.732Z,7.10
2023-02-11T02:47:47.458Z,7.10
2023-02-11T02:50:17.631Z,7.20
2023-02-11T02:53:01.560Z,7.20
2023-02-11T02:55:54.142Z,7.20
2023-02-11T02:58:37.890Z,7.20
2023-02-11T03:01:29.546Z,7.20
2023-02-11T03:04:02.069Z,7.30
2023-02-11T03:06:47.320Z,7.30
2023-02-11T03:09:27.034Z,7.30
2023-02-11T03:11:54.154Z,7.30
2023-02-11T03:14:26.697Z,7.30
2023-02-11T03:16:57.216Z,7.30
2023-02-11T03:19:35.416Z,7.30
2023-02-11T03:22:05.330Z,7.30
2023-02-11T03:24:36.854Z,7.30
2023-02-11T03:27:18.189Z,7.30
2023-02-11T03:30:09.452Z,7.30
2023-02-11T03:32:41.790Z,7.30
2023-02-11T03:35:21.009Z,7.30
2023-02-11T03:38:07.426Z,7.30
2023-02-11T03:40:39.031Z,7.30
2023-02-11T03:43:28.832Z,7.40
2023-02-11T03:45:57.016Z,7.40
2023-02-11T03:48:36.803Z,7.40
2023-02-11T03:51:07.815Z,7.40
2023-02-11T03:53:34.841Z,7.50
2023-02-11T03:56:05.924Z,7.50
2023-02-11T03:58:32.529Z,7.50
2023-02-11T04:00:59.313Z,7.60
2023-02-11T04:03:26.031Z,7.50
2023-02-11T04:05:52.822Z,7.50
2023-02-11T04:08:19.933Z,7.60
2023-02-11T04:10:46.528Z,7.60
2023-02-11T04:13:13.167Z,7.70
2023-02-11T04:15:39.973Z,7.70
2023-02-11T04:18:06.699Z,7.70
2023-02-11T04:20:33.620Z,7.70
2023-02-11T04:23:00.241Z,7.70
2023-02-11T04:25:27.193Z,7.70
2023-02-11T04:27:53.857Z,7.80
2023-02-11T04:30:20.551Z,7.80
2023-02-11T04:32:47.236Z,7.80
2023-02-11T04:35:14.317Z,7.90
2023-02-11T04:37:40.996Z,7.90
2023-02-11T04:40:08.022Z,7.90
2023-02-11T04:42:34.725Z,7.90
2023-02-11T04:45:01.757Z,7.90
2023-02-11T04:47:28.380Z,7.90
2023-02-11T04:49:55.052Z,8.00
2023-02-11T04:52:21.681Z,8.00
2023-02-11T04:54:48.959Z,8.00
2023-02-11T04:57:15.696Z,8.00
2023-02-11T04:59:42.391Z,8.00
2023-02-11T05:02:08.998Z,8.00
2023-02-11T05:04:35.588Z,8.00
2023-02-11T05:07:02.236Z,8.00
2023-02-11T05:09:29.099Z,7.90
2023-02-11T05:11:55.724Z,7.90
2023-02-11T05:14:22.411Z,8.00
2023-02-11T05:16:49.060Z,10.00
2023-02-11T05:19:15.697Z,7.90
2023-02-11T05:21:53.147Z,7.90
2023-02-11T05:24:27.062Z,7.90
2023-02-11T05:26:53.844Z,7.90
2023-02-11T05:29:20.460Z,7.90
2023-02-11T05:31:47.051Z,7.90
2023-02-11T05:34:13.662Z,7.80
2023-02-11T05:36:40.534Z,7.90
2023-02-11T05:39:07.156Z,9.80
2023-02-11T05:41:33.764Z,7.80
2023-02-11T05:44:00.374Z,7.80
2023-02-11T05:46:27.125Z,7.80
2023-02-11T05:48:53.776Z,7.80
2023-02-11T05:51:20.358Z,9.10
2023-02-11T05:53:46.983Z,7.90
2023-02-11T05:56:14.552Z,7.90
2023-02-11T05:58:41.296Z,7.80
2023-02-11T06:01:07.916Z,7.90
2023-02-11T06:03:34.667Z,8.00
2023-02-11T06:06:01.296Z,8.00
2023-02-11T06:08:27.917Z,7.90
2023-02-11T06:10:54.531Z,8.00
2023-02-11T06:13:21.139Z,7.90
2023-02-11T06:15:59.483Z,8.00
2023-02-11T06:18:26.528Z,8.00
2023-02-11T06:20:53.156Z,7.90
2023-02-11T06:23:19.966Z,8.00
2023-02-11T06:25:46.767Z,8.00
2023-02-11T06:28:13.555Z,8.10
2023-02-11T06:30:40.256Z,8.00
2023-02-11T06:33:06.909Z,8.20
2023-02-11T06:35:35.270Z,8.10
2023-02-11T06:38:02.045Z,8.10
2023-02-11T06:40:28.709Z,8.10
2023-02-11T06:42:55.326Z,8.10
2023-02-11T06:45:21.982Z,8.10
2023-02-11T06:47:51.596Z,8.10
2023-02-11T06:50:18.297Z,8.10
2023-02-11T06:52:44.903Z,8.10
2023-02-11T06:55:11.543Z,8.10
2023-02-11T06:57:38.239Z,8.10
2023-02-11T07:00:05.970Z,8.10
2023-02-11T07:02:32.729Z,8.10
2023-02-11T07:04:59.402Z,8.10
2023-02-11T07:07:27.171Z,8.10
2023-02-11T07:09:53.793Z,8.10
2023-02-11T07:12:20.402Z,8.10
2023-02-11T07:14:47.039Z,9.60
2023-02-11T07:17:13.771Z,8.10
2023-02-11T07:19:40.439Z,8.10
2023-02-11T07:22:07.189Z,8.10
2023-02-11T07:24:33.825Z,8.10
2023-02-11T07:27:00.422Z,8.20
2023-02-11T07:29:27.136Z,8.10
2023-02-11T07:31:53.787Z,8.10
2023-02-11T07:34:20.494Z,8.10
2023-02-11T07:36:48.919Z,8.20
2023-02-11T07:39:15.729Z,8.20
2023-02-11T07:41:42.980Z,8.20
2023-02-11T07:44:10.094Z,8.10
2023-02-11T07:46:36.910Z,8.20
2023-02-11T07:49:03.707Z,8.20
2023-02-11T07:51:31.464Z,8.20
2023-02-11T07:54:00.140Z,8.20
2023-02-11T07:56:27.573Z,8.20
2023-02-11T07:58:55.472Z,8.30
2023-02-11T08:01:28.188Z,8.20
2023-02-11T08:03:56.956Z,8.20
2023-02-11T08:06:25.863Z,8.30
2023-02-11T08:08:52.905Z,8.20
2023-02-11T08:11:23.206Z,8.20
2023-02-11T08:13:50.205Z,8.20
2023-02-11T08:16:31.921Z,8.20
2023-02-11T08:19:01.627Z,8.20
2023-02-11T08:21:29.018Z,8.20
2023-02-11T08:23:56.401Z,8.20
2023-02-11T08:26:28.825Z,8.30
2023-02-11T08:28:57.757Z,8.30
2023-02-11T08:31:27.843Z,8.20
2023-02-11T08:33:57.881Z,8.20
2023-02-11T08:36:29.096Z,8.30
2023-02-11T08:39:12.111Z,8.30
2023-02-11T08:41:43.389Z,8.30
2023-02-11T08:44:10.453Z,8.30
2023-02-11T08:46:37.270Z,8.30
2023-02-11T08:49:04.020Z,8.30
2023-02-11T08:51:31.522Z,8.30
2023-02-11T08:53:59.140Z,8.30
2023-02-11T08:56:26.274Z,8.20
2023-02-11T08:58:53.602Z,8.20
2023-02-11T09:01:25.731Z,8.40
2023-02-11T09:03:53.261Z,8.20
2023-02-11T09:06:20.983Z,8.30
2023-02-11T09:08:50.010Z,8.30
2023-02-11T09:11:19.100Z,8.30
2023-02-11T09:13:46.693Z,8.30
2023-02-11T09:16:19.445Z,8.30
2023-02-11T09:18:46.444Z,8.30
2023-02-11T09:21:14.068Z,8.30
2023-02-11T09:23:43.565Z,8.30
2023-02-11T09:26:18.452Z,8.40
2023-02-11T09:28:45.823Z,8.40
2023-02-11T09:31:16.246Z,8.40
2023-02-11T09:33:47.748Z,8.30
2023-02-11T09:36:19.900Z,8.30
2023-02-11T09:38:46.910Z,8.40
2023-02-11T09:41:25.352Z,8.50
2023-02-11T09:43:58.201Z,8.50
2023-02-11T09:46:27.463Z,8.50
2023-02-11T09:48:56.266Z,8.50
2023-02-11T09:51:44.741Z,9.10
2023-02-11T09:54:23.257Z,8.80
2023-02-11T09:56:49.867Z,8.70
2023-02-11T09:59:17.652Z,8.60
2023-02-11T10:01:53.416Z,8.60
2023-02-11T10:04:49.206Z,8.80
2023-02-11T10:07:32.678Z,8.60
2023-02-11T10:10:17.431Z,8.70
2023-02-11T10:13:21.215Z,8.70
2023-02-11T10:16:24.847Z,8.70
2023-02-11T10:19:11.248Z,8.70
2023-02-11T10:21:58.755Z,8.70
2023-02-11T10:24:25.473Z,8.70
2023-02-11T10:26:52.529Z,8.70
2023-02-11T10:29:40.476Z,8.70
2023-02-11T10:32:31.268Z,9.30
2023-02-11T10:35:02.876Z,9.40
2023-02-11T10:37:30.681Z,9.40
2023-02-11T10:39:57.360Z,9.30
2023-02-11T10:42:25.221Z,9.20
2023-02-11T10:45:02.829Z,9.20
2023-02-11T10:47:34.386Z,9.20
2023-02-11T10:50:03.639Z,9.10
2023-02-11T10:52:31.035Z,9.10
2023-02-11T10:55:25.241Z,9.10
2023-02-11T10:58:02.736Z,9.10
2023-02-11T11:00:39.183Z,9.00
2023-02-11T11:03:22.633Z,9.00
2023-02-11T11:06:01.379Z,9.00
2023-02-11T11:08:47.205Z,9.00
2023-02-11T11:11:23.330Z,9.00
2023-02-11T11:13:52.958Z,9.00
2023-02-11T11:16:22.498Z,8.90
2023-02-11T11:18:52.261Z,9.00
2023-02-11T11:21:25.057Z,8.90
2023-02-11T11:24:00.116Z,8.90
2023-02-11T11:26:45.834Z,8.90
2023-02-11T11:29:30.427Z,8.90
2023-02-11T11:32:01.277Z,8.90
2023-02-11T11:34:31.082Z,8.90
2023-02-11T11:36:59.314Z,8.90
2023-02-11T11:39:27.652Z,9.00
2023-02-11T11:42:03.310Z,9.00
2023-02-11T11:44:34.330Z,9.00
2023-02-11T11:47:14.624Z,9.00
2023-02-11T11:49:51.540Z,9.00
2023-02-11T11:52:35.452Z,9.00
2023-02-11T11:55:17.175Z,9.00
2023-02-11T11:57:44.099Z,9.00
2023-02-11T12:00:42.847Z,9.10
2023-02-11T12:03:41.918Z,9.10
2023-02-11T12:06:21.268Z,9.10
2023-02-11T12:09:22.561Z,9.20
2023-02-11T12:12:03.239Z,9.20
2023-02-11T12:14:41.824Z,9.20
2023-02-11T12:17:41.168Z,9.20
2023-02-11T12:20:30.881Z,9.10
2023-02-11T12:23:12.482Z,9.10
2023-02-11T12:25:54.948Z,9.10
2023-02-11T12:28:44.925Z,9.20
2023-02-11T12:31:55.441Z,9.20
2023-02-11T12:34:39.673Z,9.20
2023-02-11T12:37:45.548Z,9.20
2023-02-11T12:40:24.215Z,9.20
2023-02-11T12:43:18.028Z,9.20
2023-02-11T12:46:04.720Z,9.10
2023-02-11T12:48:54.802Z,9.20
2023-02-11T12:51:35.447Z,9.20
2023-02-11T12:54:38.343Z,9.10
2023-02-11T12:57:19.710Z,9.20
2023-02-11T12:59:55.291Z,9.20
2023-02-11T13:02:33.533Z,9.10
2023-02-11T13:05:22.654Z,9.10
2023-02-11T13:07:51.826Z,9.10
2023-02-11T13:10:33.749Z,9.10
2023-02-11T13:13:17.430Z,9.20
2023-02-11T13:15:49.956Z,9.10
2023-02-11T13:18:24.443Z,9.10
2023-02-11T13:21:21.683Z,9.10
2023-02-11T13:23:48.236Z,9.10
2023-02-11T13:26:24.082Z,9.20
2023-02-11T13:28:57.360Z,9.10
2023-02-11T13:31:27.487Z,9.20
2023-02-11T13:33:54.400Z,9.20
2023-02-11T13:36:23.783Z,9.10
2023-02-11T13:39:06.226Z,9.20
2023-02-11T13:41:40.350Z,9.20
2023-02-11T13:44:10.035Z,9.20
2023-02-11T13:47:04.709Z,9.20
2023-02-11T13:49:41.323Z,9.20
2023-02-11T13:52:38.467Z,8.10
2023-02-11T13:55:21.594Z,9.20
2023-02-11T13:58:08.210Z,9.60
2023-02-11T14:00:34.825Z,9.30
2023-02-11T14:03:32.129Z,9.30
2023-02-11T14:06:35.064Z,9.30
2023-02-11T14:09:07.422Z,9.20
2023-02-11T14:11:34.006Z,9.20
2023-02-11T14:14:23.822Z,9.30
2023-02-11T14:17:02.447Z,9.30
2023-02-11T14:19:36.238Z,9.30
2023-02-11T14:22:04.443Z,9.20
2023-02-11T14:24:34.769Z,9.20
2023-02-11T14:27:40.908Z,9.20
2023-02-11T14:30:52.525Z,9.20
2023-02-11T14:33:57.237Z,9.20
2023-02-11T14:36:51.694Z,9.20
2023-02-11T14:39:31.744Z,9.30
2023-02-11T14:42:01.420Z,9.30
2023-02-11T14:44:31.755Z,9.30
2023-02-11T14:46:59.266Z,9.30
2023-02-11T14:49:36.524Z,9.30
2023-02-11T14:52:22.442Z,9.20
2023-02-11T14:54:51.110Z,9.20
2023-02-11T14:57:20.388Z,9.20
2023-02-11T14:59:59.543Z,9.20
2023-02-11T15:02:33.921Z,9.20
2023-02-11T15:05:28.943Z,9.30
2023-02-11T15:08:01.666Z,9.40
2023-02-11T15:10:44.186Z,9.40
2023-02-11T15:13:18.913Z,9.20
2023-02-11T15:15:46.728Z,9.10
2023-02-11T15:18:22.966Z,9.10
2023-02-11T15:20:50.476Z,9.00
2023-02-11T15:23:23.250Z,8.90
2023-02-11T15:25:55.819Z,8.90
2023-02-11T15:28:26.330Z,8.80
2023-02-11T15:31:17.338Z,8.80
2023-02-11T15:33:44.188Z,8.70
2023-02-11T15:36:13.230Z,8.70
2023-02-11T15:38:40.902Z,8.70
2023-02-11T15:41:08.551Z,8.80
2023-02-11T15:43:45.726Z,8.70
2023-02-11T15:46:16.635Z,8.70
2023-02-11T15:48:52.364Z,7.30
2023-02-11T15:51:31.203Z,8.60
2023-02-11T15:54:03.809Z,8.60
2023-02-11T15:56:37.570Z,8.50
2023-02-11T15:59:20.423Z,8.50
2023-02-11T16:01:48.445Z,8.50
2023-02-11T16:04:36.076Z,8.50
2023-02-11T16:07:03.067Z,8.50
2023-02-11T16:09:35.328Z,8.50
2023-02-11T16:12:17.881Z,8.50
2023-02-11T16:14:44.535Z,8.40
2023-02-11T16:17:34.416Z,8.40
2023-02-11T16:20:01.052Z,8.40
2023-02-11T16:22:30.397Z,8.50
2023-02-11T16:25:00.035Z,8.50
2023-02-11T16:27:40.874Z,8.50
2023-02-11T16:30:23.599Z,8.50
2023-02-11T16:32:52.537Z,8.50
2023-02-11T16:35:21.815Z,8.50
2023-02-11T16:37:56.192Z,8.50
2023-02-11T16:40:23.630Z,8.50
2023-02-11T16:42:52.461Z,8.50
2023-02-11T16:45:19.341Z,8.60
2023-02-11T16:47:46.491Z,8.50
2023-02-11T16:50:21.652Z,8.40
2023-02-11T16:52:48.935Z,8.40
2023-02-11T16:55:15.807Z,8.40
2023-02-11T16:57:42.447Z,8.40
2023-02-11T17:00:10.325Z,8.40
2023-02-11T17:02:38.016Z,8.40
2023-02-11T17:05:07.520Z,8.50
2023-02-11T17:07:34.725Z,8.90
2023-02-11T17:10:02.254Z,8.50
2023-02-11T17:12:29.300Z,8.50
2023-02-11T17:14:55.944Z,8.40
2023-02-11T17:17:23.702Z,8.40
2023-02-11T17:19:51.130Z,8.40
2023-02-11T17:22:18.668Z,8.50
2023-02-11T17:24:45.348Z,8.50
2023-02-11T17:27:13.863Z,8.50
2023-02-11T17:29:40.510Z,8.40
2023-02-11T17:32:07.225Z,8.40
2023-02-11T17:34:34.049Z,8.40
2023-02-11T17:37:03.189Z,8.30
2023-02-11T17:39:29.986Z,8.40
2023-02-11T17:41:56.883Z,8.40
2023-02-11T17:44:23.694Z,8.50
2023-02-11T17:46:50.324Z,8.50
2023-02-11T17:49:16.958Z,8.50
2023-02-11T17:51:43.903Z,8.60
2023-02-11T17:54:13.987Z,8.50
2023-02-11T17:56:41.347Z,8.50
2023-02-11T17:59:09.461Z,8.40
2023-02-11T18:01:38.050Z,8.40
2023-02-11T18:04:06.280Z,9.60
2023-02-11T18:06:36.237Z,8.40
2023-02-11T18:09:04.260Z,8.30
2023-02-11T18:11:32.857Z,8.40
2023-02-11T18:14:00.049Z,8.40
2023-02-11T18:16:28.936Z,8.40
2023-02-11T18:18:59.215Z,8.40
2023-02-11T18:21:26.185Z,8.40
2023-02-11T18:23:53.088Z,9.50
2023-02-11T18:26:21.511Z,8.40
2023-02-11T18:28:48.368Z,8.40
2023-02-11T18:31:15.134Z,8.40
2023-02-11T18:33:42.891Z,8.40
2023-02-11T18:36:13.721Z,8.40
2023-02-11T18:38:41.039Z,8.50
2023-02-11T18:41:08.205Z,8.50
2023-02-11T18:43:35.518Z,8.50
2023-02-11T18:46:06.871Z,8.40
2023-02-11T18:48:33.543Z,8.50
2023-02-11T18:51:00.262Z,8.60
2023-02-11T18:53:27.019Z,8.50
2023-02-11T18:55:54.387Z,8.50
2023-02-11T18:58:21.820Z,8.60
2023-02-11T19:00:50.032Z,7.60
2023-02-11T19:03:17.305Z,8.60
2023-02-11T19:05:49.281Z,8.60
2023-02-11T19:08:17.148Z,8.50
2023-02-11T19:10:46.152Z,8.60
2023-02-11T19:13:13.708Z,7.40
2023-02-11T19:15:44.950Z,8.60
2023-02-11T19:18:13.386Z,8.60
2023-02-11T19:20:43.929Z,8.60
2023-02-11T19:23:11.304Z,8.60
2023-02-11T19:25:44.305Z,8.50
2023-02-11T19:28:11.007Z,8.50
2023-02-11T19:30:37.739Z,8.50
2023-02-11T19:33:04.504Z,8.50
2023-02-11T19:35:35.584Z,8.60
2023-02-11T19:38:03.624Z,8.70
2023-02-11T19:40:30.378Z,8.70
2023-02-11T19:42:57.028Z,8.60
2023-02-11T19:45:23.695Z,8.60
2023-02-11T19:47:54.973Z,8.60
2023-02-11T19:50:21.685Z,8.60
2023-02-11T19:52:48.276Z,8.50
2023-02-11T19:55:14.985Z,8.60
2023-02-11T19:57:41.622Z,7.60
2023-02-11T20:00:10.998Z,8.60
2023-02-11T20:02:39.157Z,8.80
2023-02-11T20:05:06.269Z,8.60
2023-02-11T20:07:33.060Z,8.60
2023-02-11T20:10:00.033Z,8.60
2023-02-11T20:12:26.643Z,8.70
2023-02-11T20:14:53.266Z,8.70
2023-02-11T20:17:19.908Z,8.70
2023-02-11T20:19:46.494Z,8.00
2023-02-11T20:22:13.341Z,8.70
2023-02-11T20:24:40.049Z,8.70
2023-02-11T20:27:08.310Z,8.80
2023-02-11T20:29:34.920Z,8.70
2023-02-11T20:32:02.849Z,8.80
2023-02-11T20:34:29.686Z,8.80
2023-02-11T20:36:56.612Z,8.80
2023-02-11T20:39:24.487Z,8.70
2023-02-11T20:41:52.274Z,8.80
2023-02-11T20:44:21.409Z,8.70
2023-02-11T20:46:48.146Z,8.80
2023-02-11T20:49:21.276Z,8.80
2023-02-11T20:51:48.605Z,8.70
2023-02-11T20:54:19.144Z,8.70
2023-02-11T20:56:48.089Z,8.70
2023-02-11T20:59:16.595Z,8.70
2023-02-11T21:01:46.029Z,8.70
2023-02-11T21:04:32.829Z,8.70
2023-02-11T21:07:04.315Z,7.90
2023-02-11T21:09:33.156Z,8.70
2023-02-11T21:12:00.479Z,8.70
2023-02-11T21:14:27.510Z,8.70
2023-02-11T21:16:54.127Z,8.70
2023-02-11T21:19:21.298Z,8.70
2023-02-11T21:21:48.424Z,8.60
2023-02-11T21:24:15.363Z,8.50
2023-02-11T21:26:42.019Z,8.40
2023-02-11T21:29:10.109Z,8.50
2023-02-11T21:31:37.782Z,8.40
2023-02-11T21:34:05.279Z,8.40
2023-02-11T21:36:32.013Z,8.40
2023-02-11T21:39:00.080Z,8.50
2023-02-11T21:41:27.300Z,8.50
2023-02-11T21:43:54.064Z,8.50
2023-02-11T21:46:21.572Z,8.50
2023-02-11T21:48:48.644Z,8.50
2023-02-11T21:51:21.458Z,8.50
2023-02-11T21:53:48.302Z,8.40
2023-02-11T21:56:17.236Z,8.40
2023-02-11T21:58:45.020Z,8.50
2023-02-11T22:01:15.651Z,8.50
2023-02-11T22:03:43.273Z,8.50
2023-02-11T22:06:16.146Z,8.50
2023-02-11T22:08:43.117Z,8.50
2023-02-11T22:11:12.160Z,8.50
2023-02-11T22:13:40.158Z,8.40
2023-02-11T22:16:11.235Z,8.40
2023-02-11T22:18:38.477Z,8.40
2023-02-11T22:21:12.593Z,8.50
2023-02-11T22:23:39.966Z,8.50
2023-02-11T22:26:27.378Z,8.40
2023-02-11T22:28:54.952Z,8.40
2023-02-11T22:31:25.056Z,8.40
2023-02-11T22:33:51.904Z,8.40
2023-02-11T22:36:24.767Z,8.40
2023-02-11T22:38:51.989Z,8.50
2023-02-11T22:41:19.633Z,8.60
2023-02-11T22:43:46.790Z,8.50
2023-02-11T22:46:16.637Z,8.40
2023-02-11T22:48:43.659Z,8.30
2023-02-11T22:51:16.353Z,8.30
2023-02-11T22:53:44.378Z,6.80
2023-02-11T22:56:15.360Z,8.20
2023-02-11T22:58:43.116Z,8.20
2023-02-11T23:01:10.158Z,8.20
2023-02-11T23:03:36.916Z,8.70
2023-02-11T23:06:04.440Z,8.20
2023-02-11T23:08:32.421Z,8.20
2023-02-11T23:11:30.146Z,8.20
2023-02-11T23:13:57.376Z,8.20
2023-02-11T23:16:26.653Z,8.10
2023-02-11T23:18:53.795Z,8.10
2023-02-11T23:21:23.633Z,8.10
2023-02-11T23:23:55.813Z,8.10
2023-02-11T23:26:22.572Z,8.00
2023-02-11T23:28:49.268Z,8.10
2023-02-11T23:31:19.098Z,8.10
2023-02-11T23:33:46.423Z,8.10
2023-02-11T23:36:13.792Z,8.10
2023-02-11T23:38:40.536Z,8.10
2023-02-11T23:41:07.229Z,8.20
2023-02-11T23:43:33.835Z,8.20
2023-02-11T23:46:00.681Z,8.20
2023-02-11T23:48:27.626Z,8.20
2023-02-11T23:50:54.308Z,10.10
2023-02-11T23:53:20.955Z,8.20
2023-02-11T23:55:47.608Z,8.20
2023-02-11T23:58:14.898Z,8.20
